Terminal Aerodrome Forecast
Issued by NWS

Home | Current Version | Previous Version | Text Only | Print | Product List | Glossary On
Versions: 1 2 3 4 5 6 7 8 9 10 11 12 13 14 15 16 17 18 19
000
FTAK31 PAFA 281301 AAA
TAFATA
TAF AMD
PATA 281301Z 2813/2912 00000KT 1/2SM FG VV002
      TEMPO 2814/2816 1SM BR
     FM281600 VRB04KT P6SM SKC=

USA.gov is the U.S. government's official web portal to all federal, state and local government web resources and services.